sensor_id;sensor_type;location;lat;lon;timestamp;pressure;altitude;pressure_sealevel;temperature;humidity
5966;BME280;3009;43.224;27.976;2023-02-13T00:01:12;102393.44;;;-0.99;75.23
5966;BME280;3009;43.224;27.976;2023-02-13T00:03:40;102399.69;;;-1.00;75.62
5966;BME280;3009;43.224;27.976;2023-02-13T00:06:10;102397.69;;;-0.98;75.25
5966;BME280;3009;43.224;27.976;2023-02-13T00:08:38;102407.03;;;-0.96;75.26
5966;BME280;3009;43.224;27.976;2023-02-13T00:11:06;102417.13;;;-0.99;75.40
5966;BME280;3009;43.224;27.976;2023-02-13T00:13:34;102405.22;;;-0.95;75.38
5966;BME280;3009;43.224;27.976;2023-02-13T00:16:03;102414.88;;;-0.87;75.25
5966;BME280;3009;43.224;27.976;2023-02-13T00:18:34;102416.41;;;-0.93;75.33
5966;BME280;3009;43.224;27.976;2023-02-13T00:21:04;102411.88;;;-0.99;75.39
5966;BME280;3009;43.224;27.976;2023-02-13T00:23:34;102417.31;;;-1.01;75.67
5966;BME280;3009;43.224;27.976;2023-02-13T00:26:06;102419.28;;;-1.03;75.74
5966;BME280;3009;43.224;27.976;2023-02-13T00:28:34;102413.41;;;-1.05;75.79
5966;BME280;3009;43.224;27.976;2023-02-13T00:31:04;102424.28;;;-1.08;75.92
5966;BME280;3009;43.224;27.976;2023-02-13T00:33:34;102419.84;;;-1.08;75.88
5966;BME280;3009;43.224;27.976;2023-02-13T00:36:05;102418.91;;;-1.15;76.18
5966;BME280;3009;43.224;27.976;2023-02-13T00:38:35;102429.63;;;-1.16;76.34
5966;BME280;3009;43.224;27.976;2023-02-13T00:41:04;102438.16;;;-1.14;76.43
5966;BME280;3009;43.224;27.976;2023-02-13T00:43:32;102425.19;;;-1.16;76.14
5966;BME280;3009;43.224;27.976;2023-02-13T00:46:01;102423.72;;;-1.18;76.59
5966;BME280;3009;43.224;27.976;2023-02-13T00:48:32;102425.72;;;-1.20;77.01
5966;BME280;3009;43.224;27.976;2023-02-13T00:51:01;102417.88;;;-1.29;77.26
5966;BME280;3009;43.224;27.976;2023-02-13T00:53:29;102427.44;;;-1.28;77.39
5966;BME280;3009;43.224;27.976;2023-02-13T00:55:59;102432.50;;;-1.26;77.20
5966;BME280;3009;43.224;27.976;2023-02-13T00:58:28;102432.41;;;-1.33;77.63
5966;BME280;3009;43.224;27.976;2023-02-13T01:00:56;102430.25;;;-1.29;77.38
5966;BME280;3009;43.224;27.976;2023-02-13T01:03:25;102425.59;;;-1.27;77.35
5966;BME280;3009;43.224;27.976;2023-02-13T01:05:55;102430.41;;;-1.31;76.99
5966;BME280;3009;43.224;27.976;2023-02-13T01:08:24;102421.06;;;-1.33;76.76
5966;BME280;3009;43.224;27.976;2023-02-13T01:10:54;102431.47;;;-1.40;77.37
5966;BME280;3009;43.224;27.976;2023-02-13T01:13:25;102433.22;;;-1.32;77.38
5966;BME280;3009;43.224;27.976;2023-02-13T01:15:53;102428.31;;;-1.35;77.18
5966;BME280;3009;43.224;27.976;2023-02-13T01:18:21;102421.31;;;-1.43;77.35
5966;BME280;3009;43.224;27.976;2023-02-13T01:20:58;102431.72;;;-1.50;77.89
5966;BME280;3009;43.224;27.976;2023-02-13T01:23:29;102426.97;;;-1.54;78.23
5966;BME280;3009;43.224;27.976;2023-02-13T01:25:58;102431.25;;;-1.53;78.23
5966;BME280;3009;43.224;27.976;2023-02-13T01:28:28;102425.81;;;-1.52;78.33
5966;BME280;3009;43.224;27.976;2023-02-13T01:30:57;102413.66;;;-1.53;78.59
5966;BME280;3009;43.224;27.976;2023-02-13T01:33:27;102415.81;;;-1.56;78.84
5966;BME280;3009;43.224;27.976;2023-02-13T01:35:56;102430.56;;;-1.70;79.80
5966;BME280;3009;43.224;27.976;2023-02-13T01:38:26;102429.72;;;-1.71;80.12
5966;BME280;3009;43.224;27.976;2023-02-13T01:40:54;102425.75;;;-1.67;80.00
5966;BME280;3009;43.224;27.976;2023-02-13T01:43:23;102421.91;;;-1.79;80.11
5966;BME280;3009;43.224;27.976;2023-02-13T01:45:55;102421.28;;;-1.81;81.01
5966;BME280;3009;43.224;27.976;2023-02-13T01:48:25;102430.31;;;-1.84;80.90
5966;BME280;3009;43.224;27.976;2023-02-13T01:51:00;102425.22;;;-1.85;80.56
5966;BME280;3009;43.224;27.976;2023-02-13T01:53:32;102434.44;;;-1.89;81.13
5966;BME280;3009;43.224;27.976;2023-02-13T01:56:08;102425.41;;;-1.87;81.13
5966;BME280;3009;43.224;27.976;2023-02-13T01:58:39;102438.59;;;-1.95;81.25
5966;BME280;3009;43.224;27.976;2023-02-13T02:01:11;102433.31;;;-1.95;80.91
5966;BME280;3009;43.224;27.976;2023-02-13T02:03:42;102425.97;;;-2.00;81.40
5966;BME280;3009;43.224;27.976;2023-02-13T02:06:17;102425.16;;;-2.00;81.22
5966;BME280;3009;43.224;27.976;2023-02-13T02:08:48;102428.66;;;-2.08;81.22
5966;BME280;3009;43.224;27.976;2023-02-13T02:11:21;102431.47;;;-2.18;82.12
5966;BME280;3009;43.224;27.976;2023-02-13T02:13:53;102428.72;;;-2.24;82.14
5966;BME280;3009;43.224;27.976;2023-02-13T02:16:24;102428.38;;;-2.21;82.24
5966;BME280;3009;43.224;27.976;2023-02-13T02:18:53;102439.06;;;-2.23;82.35
5966;BME280;3009;43.224;27.976;2023-02-13T02:24:52;102443.00;;;-2.19;81.95
5966;BME280;3009;43.224;27.976;2023-02-13T02:28:01;102450.72;;;-2.25;82.34
5966;BME280;3009;43.224;27.976;2023-02-13T02:30:50;102450.53;;;-2.16;82.73
5966;BME280;3009;43.224;27.976;2023-02-13T02:33:32;102457.63;;;-2.24;82.30
5966;BME280;3009;43.224;27.976;2023-02-13T02:36:17;102446.97;;;-2.23;82.38
5966;BME280;3009;43.224;27.976;2023-02-13T02:39:04;102441.81;;;-2.16;82.04
5966;BME280;3009;43.224;27.976;2023-02-13T02:41:42;102450.88;;;-2.19;81.94
5966;BME280;3009;43.224;27.976;2023-02-13T02:44:30;102456.00;;;-2.25;82.09
5966;BME280;3009;43.224;27.976;2023-02-13T02:47:19;102460.59;;;-2.27;81.97
5966;BME280;3009;43.224;27.976;2023-02-13T02:50:16;102464.84;;;-2.18;81.64
5966;BME280;3009;43.224;27.976;2023-02-13T02:52:58;102461.56;;;-2.20;81.64
5966;BME280;3009;43.224;27.976;2023-02-13T02:55:37;102459.94;;;-2.21;81.46
5966;BME280;3009;43.224;27.976;2023-02-13T02:58:12;102463.53;;;-2.22;81.66
5966;BME280;3009;43.224;27.976;2023-02-13T03:01:02;102459.75;;;-2.20;81.48
5966;BME280;3009;43.224;27.976;2023-02-13T03:03:50;102466.47;;;-2.17;80.95
5966;BME280;3009;43.224;27.976;2023-02-13T03:06:42;102470.25;;;-2.20;80.94
5966;BME280;3009;43.224;27.976;2023-02-13T03:09:14;102470.44;;;-2.21;80.67
5966;BME280;3009;43.224;27.976;2023-02-13T03:12:01;102470.91;;;-2.18;80.49
5966;BME280;3009;43.224;27.976;2023-02-13T03:14:47;102466.13;;;-2.14;80.59
5966;BME280;3009;43.224;27.976;2023-02-13T03:17:17;102471.91;;;-2.19;80.50
5966;BME280;3009;43.224;27.976;2023-02-13T03:20:14;102464.22;;;-2.28;80.23
5966;BME280;3009;43.224;27.976;2023-02-13T03:23:29;102466.88;;;-2.37;80.76
5966;BME280;3009;43.224;27.976;2023-02-13T03:26:14;102467.06;;;-2.46;81.08
5966;BME280;3009;43.224;27.976;2023-02-13T03:28:48;102470.88;;;-2.49;81.80
5966;BME280;3009;43.224;27.976;2023-02-13T03:31:43;102469.22;;;-2.50;81.90
5966;BME280;3009;43.224;27.976;2023-02-13T03:34:19;102460.03;;;-2.46;81.46
5966;BME280;3009;43.224;27.976;2023-02-13T03:36:56;102465.63;;;-2.49;81.87
5966;BME280;3009;43.224;27.976;2023-02-13T03:39:50;102467.25;;;-2.48;82.00
5966;BME280;3009;43.224;27.976;2023-02-13T03:42:29;102466.72;;;-2.43;82.33
5966;BME280;3009;43.224;27.976;2023-02-13T03:45:02;102470.31;;;-2.36;81.36
5966;BME280;3009;43.224;27.976;2023-02-13T03:47:54;102473.75;;;-2.36;81.06
5966;BME280;3009;43.224;27.976;2023-02-13T03:50:24;102482.47;;;-2.35;80.58
5966;BME280;3009;43.224;27.976;2023-02-13T03:52:55;102476.72;;;-2.30;80.03
5966;BME280;3009;43.224;27.976;2023-02-13T03:55:34;102480.66;;;-2.35;79.35
5966;BME280;3009;43.224;27.976;2023-02-13T03:58:22;102487.22;;;-2.30;79.67
5966;BME280;3009;43.224;27.976;2023-02-13T04:01:11;102476.19;;;-2.26;79.34
5966;BME280;3009;43.224;27.976;2023-02-13T04:03:47;102478.03;;;-2.26;79.47
5966;BME280;3009;43.224;27.976;2023-02-13T04:06:20;102480.97;;;-2.29;79.37
5966;BME280;3009;43.224;27.976;2023-02-13T04:08:49;102469.19;;;-2.42;79.83
5966;BME280;3009;43.224;27.976;2023-02-13T04:11:24;102479.53;;;-2.40;80.13
5966;BME280;3009;43.224;27.976;2023-02-13T04:13:56;102474.09;;;-2.39;80.07
5966;BME280;3009;43.224;27.976;2023-02-13T04:16:29;102468.38;;;-2.42;79.99
5966;BME280;3009;43.224;27.976;2023-02-13T04:19:00;102475.97;;;-2.47;80.12
5966;BME280;3009;43.224;27.976;2023-02-13T04:21:32;102479.06;;;-2.52;80.42
5966;BME280;3009;43.224;27.976;2023-02-13T04:24:01;102471.69;;;-2.57;80.56
5966;BME280;3009;43.224;27.976;2023-02-13T04:26:34;102477.28;;;-2.52;80.01
5966;BME280;3009;43.224;27.976;2023-02-13T04:29:03;102473.50;;;-2.49;79.88
5966;BME280;3009;43.224;27.976;2023-02-13T04:31:31;102473.81;;;-2.52;80.17
5966;BME280;3009;43.224;27.976;2023-02-13T04:34:00;102471.19;;;-2.52;80.20
5966;BME280;3009;43.224;27.976;2023-02-13T04:36:28;102480.72;;;-2.51;80.08
5966;BME280;3009;43.224;27.976;2023-02-13T04:38:57;102481.69;;;-2.44;80.03
5966;BME280;3009;43.224;27.976;2023-02-13T04:41:25;102476.78;;;-2.47;80.18
5966;BME280;3009;43.224;27.976;2023-02-13T04:43:54;102468.88;;;-2.47;79.71
5966;BME280;3009;43.224;27.976;2023-02-13T04:46:22;102473.66;;;-2.51;80.00
5966;BME280;3009;43.224;27.976;2023-02-13T04:48:51;102469.53;;;-2.45;79.99
5966;BME280;3009;43.224;27.976;2023-02-13T04:51:19;102466.59;;;-2.50;80.14
5966;BME280;3009;43.224;27.976;2023-02-13T04:53:48;102469.41;;;-2.60;80.13
5966;BME280;3009;43.224;27.976;2023-02-13T04:56:16;102469.22;;;-2.58;80.00
5966;BME280;3009;43.224;27.976;2023-02-13T04:58:45;102470.91;;;-2.74;80.02
5966;BME280;3009;43.224;27.976;2023-02-13T05:01:16;102471.41;;;-2.70;80.73
5966;BME280;3009;43.224;27.976;2023-02-13T05:03:45;102472.06;;;-2.68;80.40
5966;BME280;3009;43.224;27.976;2023-02-13T05:06:13;102465.03;;;-2.76;80.50
5966;BME280;3009;43.224;27.976;2023-02-13T05:08:41;102485.53;;;-2.71;80.18
5966;BME280;3009;43.224;27.976;2023-02-13T05:11:10;102482.44;;;-2.75;80.43
5966;BME280;3009;43.224;27.976;2023-02-13T05:13:38;102494.38;;;-2.72;80.72
5966;BME280;3009;43.224;27.976;2023-02-13T05:16:06;102491.75;;;-2.64;80.41
5966;BME280;3009;43.224;27.976;2023-02-13T05:18:36;102500.47;;;-2.72;80.34
5966;BME280;3009;43.224;27.976;2023-02-13T05:21:04;102495.69;;;-2.68;80.56
5966;BME280;3009;43.224;27.976;2023-02-13T05:23:52;102503.41;;;-2.67;80.62
5966;BME280;3009;43.224;27.976;2023-02-13T05:26:20;102500.59;;;-2.57;80.47
5966;BME280;3009;43.224;27.976;2023-02-13T05:28:48;102498.09;;;-2.42;80.02
5966;BME280;3009;43.224;27.976;2023-02-13T05:31:34;102498.84;;;-2.17;78.62
5966;BME280;3009;43.224;27.976;2023-02-13T05:34:04;102503.44;;;-1.79;77.54
5966;BME280;3009;43.224;27.976;2023-02-13T05:36:32;102511.22;;;-1.63;75.26
5966;BME280;3009;43.224;27.976;2023-02-13T05:39:01;102506.03;;;-1.48;74.11
5966;BME280;3009;43.224;27.976;2023-02-13T05:41:29;102505.84;;;-1.23;73.50
5966;BME280;3009;43.224;27.976;2023-02-13T05:43:58;102509.66;;;-1.26;72.41
5966;BME280;3009;43.224;27.976;2023-02-13T05:46:26;102505.97;;;-1.39;72.97
5966;BME280;3009;43.224;27.976;2023-02-13T05:48:54;102508.84;;;-1.49;73.86
5966;BME280;3009;43.224;27.976;2023-02-13T05:51:24;102516.78;;;-1.11;74.04
5966;BME280;3009;43.224;27.976;2023-02-13T05:53:52;102521.84;;;-0.86;71.91
5966;BME280;3009;43.224;27.976;2023-02-13T05:56:20;102521.03;;;-0.87;71.78
5966;BME280;3009;43.224;27.976;2023-02-13T05:58:50;102512.94;;;-0.85;71.51
5966;BME280;3009;43.224;27.976;2023-02-13T06:01:19;102528.66;;;-0.39;70.35
5966;BME280;3009;43.224;27.976;2023-02-13T06:03:47;102534.72;;;-0.09;68.85
5966;BME280;3009;43.224;27.976;2023-02-13T06:06:16;102526.47;;;0.31;67.38
5966;BME280;3009;43.224;27.976;2023-02-13T06:08:46;102527.91;;;0.70;65.61
5966;BME280;3009;43.224;27.976;2023-02-13T06:11:14;102524.97;;;0.65;65.03
5966;BME280;3009;43.224;27.976;2023-02-13T06:13:42;102525.56;;;0.60;64.65
5966;BME280;3009;43.224;27.976;2023-02-13T06:16:11;102523.84;;;0.52;65.00
5966;BME280;3009;43.224;27.976;2023-02-13T06:18:39;102521.06;;;0.39;64.84
5966;BME280;3009;43.224;27.976;2023-02-13T06:21:08;102525.84;;;0.29;64.96
5966;BME280;3009;43.224;27.976;2023-02-13T06:23:36;102516.28;;;0.28;64.89
5966;BME280;3009;43.224;27.976;2023-02-13T06:26:07;102524.41;;;0.11;64.98
5966;BME280;3009;43.224;27.976;2023-02-13T06:28:36;102521.25;;;0.01;66.31
5966;BME280;3009;43.224;27.976;2023-02-13T06:31:04;102524.53;;;0.03;66.43
5966;BME280;3009;43.224;27.976;2023-02-13T06:33:33;102532.34;;;-0.04;66.49
5966;BME280;3009;43.224;27.976;2023-02-13T06:36:01;102536.44;;;-0.01;67.23
5966;BME280;3009;43.224;27.976;2023-02-13T06:38:29;102531.34;;;-0.03;66.37
5966;BME280;3009;43.224;27.976;2023-02-13T06:40:59;102530.44;;;0.05;65.66
5966;BME280;3009;43.224;27.976;2023-02-13T06:43:30;102531.25;;;0.06;65.73
5966;BME280;3009;43.224;27.976;2023-02-13T06:45:58;102536.13;;;0.24;64.94
5966;BME280;3009;43.224;27.976;2023-02-13T06:48:26;102526.94;;;0.20;64.60
5966;BME280;3009;43.224;27.976;2023-02-13T06:50:54;102535.50;;;0.22;64.21
5966;BME280;3009;43.224;27.976;2023-02-13T06:53:23;102529.38;;;0.21;64.73
5966;BME280;3009;43.224;27.976;2023-02-13T06:55:51;102541.13;;;0.33;64.11
5966;BME280;3009;43.224;27.976;2023-02-13T06:58:20;102531.63;;;0.39;63.62
5966;BME280;3009;43.224;27.976;2023-02-13T07:00:51;102534.91;;;0.41;63.09
5966;BME280;3009;43.224;27.976;2023-02-13T07:03:20;102529.25;;;0.44;63.29
5966;BME280;3009;43.224;27.976;2023-02-13T07:05:48;102528.88;;;0.47;62.72
5966;BME280;3009;43.224;27.976;2023-02-13T07:08:18;102526.13;;;0.56;62.64
5966;BME280;3009;43.224;27.976;2023-02-13T07:10:46;102526.19;;;0.62;63.12
5966;BME280;3009;43.224;27.976;2023-02-13T07:13:14;102532.66;;;0.81;62.46
5966;BME280;3009;43.224;27.976;2023-02-13T07:15:43;102520.94;;;1.12;61.78
5966;BME280;3009;43.224;27.976;2023-02-13T07:18:12;102520.13;;;1.40;60.41
5966;BME280;3009;43.224;27.976;2023-02-13T07:20:41;102521.16;;;1.39;59.61
5966;BME280;3009;43.224;27.976;2023-02-13T07:23:09;102525.09;;;1.56;58.48
5966;BME280;3009;43.224;27.976;2023-02-13T07:25:37;102512.81;;;1.77;61.23
5966;BME280;3009;43.224;27.976;2023-02-13T07:28:05;102514.94;;;1.95;60.75
5966;BME280;3009;43.224;27.976;2023-02-13T07:30:34;102524.03;;;2.34;58.69
5966;BME280;3009;43.224;27.976;2023-02-13T07:33:03;102517.84;;;2.13;55.54
5966;BME280;3009;43.224;27.976;2023-02-13T07:35:33;102512.56;;;2.13;56.04
5966;BME280;3009;43.224;27.976;2023-02-13T07:38:03;102519.59;;;2.48;55.51
5966;BME280;3009;43.224;27.976;2023-02-13T07:40:32;102520.22;;;2.63;55.17
5966;BME280;3009;43.224;27.976;2023-02-13T07:43:00;102526.13;;;2.79;54.77
5966;BME280;3009;43.224;27.976;2023-02-13T07:45:29;102521.88;;;2.78;53.04
5966;BME280;3009;43.224;27.976;2023-02-13T07:47:57;102511.50;;;3.10;54.70
5966;BME280;3009;43.224;27.976;2023-02-13T07:50:26;102508.16;;;3.48;54.49
5966;BME280;3009;43.224;27.976;2023-02-13T07:52:57;102500.81;;;3.36;54.38
5966;BME280;3009;43.224;27.976;2023-02-13T07:55:26;102501.44;;;3.45;53.36
5966;BME280;3009;43.224;27.976;2023-02-13T07:57:54;102496.22;;;3.84;51.38
5966;BME280;3009;43.224;27.976;2023-02-13T08:00:22;102501.88;;;4.01;52.41
5966;BME280;3009;43.224;27.976;2023-02-13T08:02:51;102504.47;;;4.14;52.06
5966;BME280;3009;43.224;27.976;2023-02-13T08:05:19;102497.50;;;4.20;50.74
5966;BME280;3009;43.224;27.976;2023-02-13T08:07:47;102497.81;;;4.37;49.09
5966;BME280;3009;43.224;27.976;2023-02-13T08:10:17;102504.13;;;3.97;50.11
5966;BME280;3009;43.224;27.976;2023-02-13T08:13:03;102503.75;;;4.32;49.55
5966;BME280;3009;43.224;27.976;2023-02-13T08:15:32;102499.72;;;4.23;49.32
5966;BME280;3009;43.224;27.976;2023-02-13T08:18:00;102505.47;;;4.13;48.67
5966;BME280;3009;43.224;27.976;2023-02-13T08:20:28;102504.41;;;4.28;48.85
5966;BME280;3009;43.224;27.976;2023-02-13T08:23:01;102502.38;;;4.55;48.55
5966;BME280;3009;43.224;27.976;2023-02-13T08:25:31;102504.00;;;4.56;49.16
5966;BME280;3009;43.224;27.976;2023-02-13T08:28:00;102503.59;;;4.59;48.48
5966;BME280;3009;43.224;27.976;2023-02-13T08:30:28;102505.88;;;4.81;48.24
5966;BME280;3009;43.224;27.976;2023-02-13T08:32:57;102498.78;;;4.74;50.82
5966;BME280;3009;43.224;27.976;2023-02-13T08:35:25;102498.97;;;4.48;53.31
5966;BME280;3009;43.224;27.976;2023-02-13T08:37:55;102499.31;;;3.74;55.63
5966;BME280;3009;43.224;27.976;2023-02-13T08:40:23;102503.94;;;3.92;56.79
5966;BME280;3009;43.224;27.976;2023-02-13T08:42:58;102503.56;;;3.82;56.85
5966;BME280;3009;43.224;27.976;2023-02-13T08:45:27;102498.25;;;3.88;56.72
5966;BME280;3009;43.224;27.976;2023-02-13T08:47:56;102505.94;;;4.03;56.67
5966;BME280;3009;43.224;27.976;2023-02-13T08:50:25;102493.38;;;4.24;56.45
5966;BME280;3009;43.224;27.976;2023-02-13T08:52:54;102489.75;;;4.50;54.82
5966;BME280;3009;43.224;27.976;2023-02-13T08:55:22;102497.59;;;4.38;54.44
5966;BME280;3009;43.224;27.976;2023-02-13T08:57:50;102494.72;;;4.40;54.78
5966;BME280;3009;43.224;27.976;2023-02-13T09:00:20;102495.16;;;4.37;54.60
5966;BME280;3009;43.224;27.976;2023-02-13T09:02:48;102475.91;;;4.41;54.69
5966;BME280;3009;43.224;27.976;2023-02-13T09:05:18;102486.53;;;4.03;55.33
5966;BME280;3009;43.224;27.976;2023-02-13T09:07:46;102485.91;;;4.07;54.37
5966;BME280;3009;43.224;27.976;2023-02-13T09:10:14;102474.63;;;3.73;55.76
5966;BME280;3009;43.224;27.976;2023-02-13T09:12:44;102470.88;;;3.88;55.92
5966;BME280;3009;43.224;27.976;2023-02-13T09:15:12;102467.63;;;3.93;55.28
5966;BME280;3009;43.224;27.976;2023-02-13T09:17:41;102471.88;;;4.00;55.24
5966;BME280;3009;43.224;27.976;2023-02-13T09:20:10;102475.75;;;3.98;55.08
5966;BME280;3009;43.224;27.976;2023-02-13T09:22:39;102481.69;;;3.86;55.15
5966;BME280;3009;43.224;27.976;2023-02-13T09:25:08;102470.97;;;3.68;55.16
5966;BME280;3009;43.224;27.976;2023-02-13T09:27:36;102477.53;;;3.59;55.57
5966;BME280;3009;43.224;27.976;2023-02-13T09:30:06;102451.47;;;3.49;55.79
5966;BME280;3009;43.224;27.976;2023-02-13T09:32:34;102466.34;;;3.43;56.08
5966;BME280;3009;43.224;27.976;2023-02-13T09:35:04;102455.34;;;3.46;55.92
5966;BME280;3009;43.224;27.976;2023-02-13T09:37:33;102452.69;;;3.40;56.23
5966;BME280;3009;43.224;27.976;2023-02-13T09:40:01;102443.28;;;3.50;56.11
5966;BME280;3009;43.224;27.976;2023-02-13T09:42:32;102441.91;;;3.86;55.38
5966;BME280;3009;43.224;27.976;2023-02-13T09:45:05;102427.16;;;3.97;54.52
5966;BME280;3009;43.224;27.976;2023-02-13T09:47:36;102433.59;;;4.15;54.04
5966;BME280;3009;43.224;27.976;2023-02-13T09:50:11;102423.47;;;3.98;54.82
5966;BME280;3009;43.224;27.976;2023-02-13T09:52:43;102430.47;;;3.93;54.56
5966;BME280;3009;43.224;27.976;2023-02-13T09:55:15;102423.44;;;4.05;54.10
5966;BME280;3009;43.224;27.976;2023-02-13T09:57:46;102417.78;;;3.95;54.32
5966;BME280;3009;43.224;27.976;2023-02-13T10:00:19;102406.34;;;3.94;54.16
5966;BME280;3009;43.224;27.976;2023-02-13T10:03:11;102409.72;;;3.76;54.89
5966;BME280;3009;43.224;27.976;2023-02-13T10:05:52;102404.91;;;3.60;54.88
5966;BME280;3009;43.224;27.976;2023-02-13T10:08:31;102400.00;;;3.57;54.98
5966;BME280;3009;43.224;27.976;2023-02-13T10:11:11;102406.97;;;3.51;55.05
5966;BME280;3009;43.224;27.976;2023-02-13T10:13:52;102395.50;;;3.57;54.58
5966;BME280;3009;43.224;27.976;2023-02-13T10:16:26;102400.22;;;3.48;54.45
5966;BME280;3009;43.224;27.976;2023-02-13T10:19:01;102391.91;;;3.45;53.99
5966;BME280;3009;43.224;27.976;2023-02-13T10:21:37;102391.47;;;3.48;53.65
5966;BME280;3009;43.224;27.976;2023-02-13T10:24:11;102390.16;;;3.64;53.55
5966;BME280;3009;43.224;27.976;2023-02-13T10:26:42;102381.38;;;3.70;53.13
5966;BME280;3009;43.224;27.976;2023-02-13T10:29:18;102378.75;;;3.63;53.54
5966;BME280;3009;43.224;27.976;2023-02-13T10:32:10;102387.28;;;3.65;53.90
5966;BME280;3009;43.224;27.976;2023-02-13T10:34:42;102376.44;;;3.73;53.46
5966;BME280;3009;43.224;27.976;2023-02-13T10:37:15;102376.28;;;3.68;53.76
5966;BME280;3009;43.224;27.976;2023-02-13T10:39:45;102377.44;;;3.79;53.09
5966;BME280;3009;43.224;27.976;2023-02-13T10:42:20;102367.34;;;3.95;52.78
5966;BME280;3009;43.224;27.976;2023-02-13T10:44:56;102363.25;;;3.99;51.95
5966;BME280;3009;43.224;27.976;2023-02-13T10:47:43;102369.53;;;4.04;51.87
5966;BME280;3009;43.224;27.976;2023-02-13T10:50:22;102361.75;;;4.10;51.85
5966;BME280;3009;43.224;27.976;2023-02-13T10:53:07;102357.66;;;4.07;51.87
5966;BME280;3009;43.224;27.976;2023-02-13T10:56:01;102352.16;;;4.08;53.23
5966;BME280;3009;43.224;27.976;2023-02-13T10:58:42;102351.75;;;4.30;53.31
5966;BME280;3009;43.224;27.976;2023-02-13T11:01:18;102337.47;;;4.31;52.74
5966;BME280;3009;43.224;27.976;2023-02-13T11:04:00;102336.41;;;4.57;53.23
5966;BME280;3009;43.224;27.976;2023-02-13T11:06:32;102333.25;;;4.67;52.83
5966;BME280;3009;43.224;27.976;2023-02-13T11:09:04;102334.16;;;4.79;51.93
5966;BME280;3009;43.224;27.976;2023-02-13T11:11:35;102334.09;;;4.86;52.36
5966;BME280;3009;43.224;27.976;2023-02-13T11:14:09;102339.56;;;4.91;52.07
5966;BME280;3009;43.224;27.976;2023-02-13T11:16:40;102340.97;;;4.94;51.80
5966;BME280;3009;43.224;27.976;2023-02-13T11:19:21;102334.59;;;4.76;53.01
5966;BME280;3009;43.224;27.976;2023-02-13T11:21:57;102341.72;;;4.14;55.80
5966;BME280;3009;43.224;27.976;2023-02-13T11:24:28;102339.75;;;3.70;57.50
5966;BME280;3009;43.224;27.976;2023-02-13T11:26:59;102338.38;;;3.61;58.07
5966;BME280;3009;43.224;27.976;2023-02-13T11:29:30;102334.25;;;3.65;58.25
5966;BME280;3009;43.224;27.976;2023-02-13T11:32:05;102332.78;;;3.69;58.21
5966;BME280;3009;43.224;27.976;2023-02-13T11:34:38;102330.34;;;3.75;58.22
5966;BME280;3009;43.224;27.976;2023-02-13T11:37:15;102323.97;;;3.76;57.79
5966;BME280;3009;43.224;27.976;2023-02-13T11:39:47;102319.03;;;3.86;58.23
5966;BME280;3009;43.224;27.976;2023-02-13T11:42:20;102322.44;;;3.61;57.93
5966;BME280;3009;43.224;27.976;2023-02-13T11:44:53;102317.31;;;3.66;58.18
5966;BME280;3009;43.224;27.976;2023-02-13T11:47:31;102317.06;;;3.75;59.88
5966;BME280;3009;43.224;27.976;2023-02-13T11:50:00;102312.44;;;3.63;61.45
5966;BME280;3009;43.224;27.976;2023-02-13T11:52:31;102313.78;;;3.41;62.69
5966;BME280;3009;43.224;27.976;2023-02-13T11:55:02;102302.53;;;3.45;61.45
5966;BME280;3009;43.224;27.976;2023-02-13T11:57:33;102305.44;;;3.30;61.17
5966;BME280;3009;43.224;27.976;2023-02-13T12:00:26;102303.38;;;3.39;61.50
5966;BME280;3009;43.224;27.976;2023-02-13T12:02:56;102302.38;;;3.40;62.67
5966;BME280;3009;43.224;27.976;2023-02-13T12:05:26;102296.84;;;3.42;62.36
5966;BME280;3009;43.224;27.976;2023-02-13T12:07:58;102301.09;;;3.43;61.69
5966;BME280;3009;43.224;27.976;2023-02-13T12:10:30;102293.16;;;3.43;62.05
5966;BME280;3009;43.224;27.976;2023-02-13T12:13:06;102300.66;;;3.52;61.32
5966;BME280;3009;43.224;27.976;2023-02-13T12:15:39;102292.31;;;3.49;62.34
5966;BME280;3009;43.224;27.976;2023-02-13T12:18:14;102286.41;;;3.47;62.70
5966;BME280;3009;43.224;27.976;2023-02-13T12:20:53;102285.44;;;3.34;63.68
5966;BME280;3009;43.224;27.976;2023-02-13T12:23:31;102286.09;;;3.30;64.85
5966;BME280;3009;43.224;27.976;2023-02-13T12:26:19;102282.31;;;3.51;65.84
5966;BME280;3009;43.224;27.976;2023-02-13T12:29:25;102273.66;;;3.62;64.99
5966;BME280;3009;43.224;27.976;2023-02-13T12:32:09;102272.81;;;3.68;63.36
5966;BME280;3009;43.224;27.976;2023-02-13T12:35:02;102277.56;;;3.60;61.99
5966;BME280;3009;43.224;27.976;2023-02-13T12:37:56;102273.03;;;3.67;59.78
5966;BME280;3009;43.224;27.976;2023-02-13T12:40:41;102277.16;;;3.56;57.78
5966;BME280;3009;43.224;27.976;2023-02-13T12:46:29;102266.69;;;3.36;57.66
5966;BME280;3009;43.224;27.976;2023-02-13T12:49:07;102263.25;;;3.29;59.67
5966;BME280;3009;43.224;27.976;2023-02-13T12:51:45;102268.97;;;3.32;59.48
5966;BME280;3009;43.224;27.976;2023-02-13T12:54:29;102273.91;;;3.22;59.86
5966;BME280;3009;43.224;27.976;2023-02-13T13:00:09;102259.25;;;3.13;58.76
5966;BME280;3009;43.224;27.976;2023-02-13T13:02:50;102258.22;;;3.14;58.15
5966;BME280;3009;43.224;27.976;2023-02-13T13:05:29;102252.91;;;3.14;57.50
5966;BME280;3009;43.224;27.976;2023-02-13T13:08:15;102260.66;;;3.15;58.83
5966;BME280;3009;43.224;27.976;2023-02-13T13:10:58;102244.97;;;3.14;59.03
5966;BME280;3009;43.224;27.976;2023-02-13T13:13:41;102258.22;;;3.21;56.49
5966;BME280;3009;43.224;27.976;2023-02-13T13:16:17;102252.47;;;3.24;57.05
5966;BME280;3009;43.224;27.976;2023-02-13T13:18:56;102261.22;;;3.24;58.66
5966;BME280;3009;43.224;27.976;2023-02-13T13:21:36;102254.34;;;3.16;57.32
5966;BME280;3009;43.224;27.976;2023-02-13T13:24:21;102250.91;;;3.09;56.46
5966;BME280;3009;43.224;27.976;2023-02-13T13:26:53;102252.06;;;3.20;55.80
5966;BME280;3009;43.224;27.976;2023-02-13T13:29:26;102229.91;;;3.14;56.75
5966;BME280;3009;43.224;27.976;2023-02-13T13:32:00;102242.09;;;3.15;57.80
5966;BME280;3009;43.224;27.976;2023-02-13T13:34:30;102239.44;;;3.22;54.19
5966;BME280;3009;43.224;27.976;2023-02-13T13:37:05;102236.28;;;3.39;54.21
5966;BME280;3009;43.224;27.976;2023-02-13T13:39:44;102233.00;;;3.36;53.30
5966;BME280;3009;43.224;27.976;2023-02-13T13:42:18;102225.28;;;3.35;52.26
5966;BME280;3009;43.224;27.976;2023-02-13T13:45:08;102221.53;;;3.43;53.86
5966;BME280;3009;43.224;27.976;2023-02-13T13:47:52;102215.28;;;3.37;53.07